sim
Sign-in with your pilot id or email,
or register
Callsign
Passwort

Schedule Details

Flight Number: DLH1835 (3)
Departure: Malaga Costa Del Sol Airport (LEMG) at 18:05
Arrival: Munich Airport (EDDM) at 21:00
Route: Lufthansa Passenger Schedule. Enter filed route here before submitting Pirep.

Weather Information
Getting current METAR information for LEMG 210500Z 28010KT CAVOK 23/14 Q1016 NOSIG
Getting current METAR information for EDDM 210450Z 06002KT 9999 1500NE R08L/0900U BCFG NSC 07/07 Q1016 NOSIG

Schedule Frequency

Route Map